CheckWX is a tool to help pilots better visualize weather data.  It is not intended as a substitute for an official pre-flight weather briefing.

11:28:26 UTC

KFXE METAR
Fort Lauderdale Executive Airport
Fort Lauderdale, Florida, USA
Current

35 mins ago

KFXE 241053Z 14004KT 10SM SCT050 21/12 A3008 RMK AO2 SLP189 T02060122
Observed
Feb-24 @ 10:53 UTC
Wind
  • 140° at 4 KTS
Visibility
10 SM
Flight Rules
VFR
Cloud Levels
  • Scattered at 5,000' AGL
Temperature
21°C / 70°F
Dewpoint
12°C / 54°F
Humidity
57%
Altimeter
30.08" Hg
Pressure
1018.62 hPa
Previous

2 hours ago

KFXE 240953Z AUTO 13005KT 10SM CLR 20/11 A3007 RMK AO2 SLP184 T02000111
Observed
Feb-24 @ 09:53 UTC
Wind
  • 130° at 5 KTS
Visibility
10 SM
Flight Rules
VFR
Cloud Levels
  • Clear skies
Temperature
20°C / 68°F
Dewpoint
11°C / 52°F
Humidity
56%
Altimeter
30.07" Hg
Pressure
1018.32 hPa
Previous

3 hours ago

KFXE 240853Z 12010KT 10SM BKN055 21/12 A3007 RMK AO2 SLP185 T02110117 58018
Observed
Feb-24 @ 08:53 UTC
Wind
  • 120° at 10 KTS
Visibility
10 SM
Flight Rules
VFR
Cloud Levels
  • Broken at 5,500' AGL
Temperature
21°C / 70°F
Dewpoint
12°C / 54°F
Humidity
57%
Altimeter
30.07" Hg
Pressure
1018.32 hPa